Aviation Digital Data Service (ADDS)

Output produced by METARs form (1050 UTC 17 June 2019)
found at http://www.aviationweather.gov/metar/data/
 
METAR text: DAOO 171030Z 34008KT 310V030 9999 BKN026 24/17 Q1017
Conditions at: DAOO (ORAN/ES SENIA , DZ) observed 1030 UTC 17 June 2019
Temperature: 24.0°C (75°F)
Dewpoint: 17.0°C (63°F) [RH = 65%]
Pressure (altimeter): 30.03 inches Hg (1017.0 mb)
Winds: from the NNW (340 degrees) at 9 MPH (8 knots; 4.1 m/s)
Visibility: 6 or more miles (10+ km)
Ceiling: 2600 feet AGL
Clouds: broken clouds at 2600 feet AGL
Weather: no significant weather observed at this time

METAR text: DAOO 171000Z 35008KT 300V040 9999 BKN026 24/16 Q1017
Conditions at: DAOO (ORAN/ES SENIA , DZ) observed 1000 UTC 17 June 2019
Temperature: 24.0°C (75°F)
Dewpoint: 16.0°C (61°F) [RH = 61%]
Pressure (altimeter): 30.03 inches Hg (1017.0 mb)
Winds: from the N (350 degrees) at 9 MPH (8 knots; 4.1 m/s)
Visibility: 6 or more miles (10+ km)
Ceiling: 2600 feet AGL
Clouds: broken clouds at 2600 feet AGL
Weather: no significant weather observed at this time

METAR text: DAOO 170930Z 35006KT 9999 BKN026 24/16 Q1018
Conditions at: DAOO (ORAN/ES SENIA , DZ) observed 0930 UTC 17 June 2019
Temperature: 24.0°C (75°F)
Dewpoint: 16.0°C (61°F) [RH = 61%]
Pressure (altimeter): 30.06 inches Hg (1018.0 mb)
Winds: from the N (350 degrees) at 7 MPH (6 knots; 3.1 m/s)
Visibility: 6 or more miles (10+ km)
Ceiling: 2600 feet AGL
Clouds: broken clouds at 2600 feet AGL
Weather: no significant weather observed at this time

METAR text: DAOO 170900Z 34004KT 9999 BKN026 23/16 Q1017
Conditions at: DAOO (ORAN/ES SENIA , DZ) observed 0900 UTC 17 June 2019
Temperature: 23.0°C (73°F)
Dewpoint: 16.0°C (61°F) [RH = 65%]
Pressure (altimeter): 30.03 inches Hg (1017.0 mb)
Winds: from the NNW (340 degrees) at 5 MPH (4 knots; 2.1 m/s)
Visibility: 6 or more miles (10+ km)
Ceiling: 2600 feet AGL
Clouds: broken clouds at 2600 feet AGL
Weather: no significant weather observed at this time

METAR text: DAOO 170830Z VRB04KT 9999 BKN026 23/16 Q1018
Conditions at: DAOO (ORAN/ES SENIA , DZ) observed 0830 UTC 17 June 2019
Temperature: 23.0°C (73°F)
Dewpoint: 16.0°C (61°F) [RH = 65%]
Pressure (altimeter): 30.06 inches Hg (1018.0 mb)
Winds: variable direction winds at 5 MPH (4 knots; 2.1 m/s)
Visibility: 6 or more miles (10+ km)
Ceiling: 2600 feet AGL
Clouds: broken clouds at 2600 feet AGL
Weather: no significant weather observed at this time

METAR text: DAOO 170800Z 33004KT 260V360 9999 BKN026 22/16 Q1018
Conditions at: DAOO (ORAN/ES SENIA , DZ) observed 0800 UTC 17 June 2019
Temperature: 22.0°C (72°F)
Dewpoint: 16.0°C (61°F) [RH = 69%]
Pressure (altimeter): 30.06 inches Hg (1018.0 mb)
Winds: from the NNW (330 degrees) at 5 MPH (4 knots; 2.1 m/s)
Visibility: 6 or more miles (10+ km)
Ceiling: 2600 feet AGL
Clouds: broken clouds at 2600 feet AGL
Weather: no significant weather observed at this time

METAR text: DAOO 170730Z 33005KT 290V010 9999 BKN030 22/16 Q1018
Conditions at: DAOO (ORAN/ES SENIA , DZ) observed 0730 UTC 17 June 2019
Temperature: 22.0°C (72°F)
Dewpoint: 16.0°C (61°F) [RH = 69%]
Pressure (altimeter): 30.06 inches Hg (1018.0 mb)
Winds: from the NNW (330 degrees) at 6 MPH (5 knots; 2.6 m/s)
Visibility: 6 or more miles (10+ km)
Ceiling: 3000 feet AGL
Clouds: broken clouds at 3000 feet AGL
Weather: no significant weather observed at this time

METAR text: DAOO 170700Z 32003KT 290V350 9999 BKN030 21/17 Q1018
Conditions at: DAOO (ORAN/ES SENIA , DZ) observed 0700 UTC 17 June 2019
Temperature: 21.0°C (70°F)
Dewpoint: 17.0°C (63°F) [RH = 78%]
Pressure (altimeter): 30.06 inches Hg (1018.0 mb)
Winds: from the NW (320 degrees) at 3 MPH (3 knots; 1.5 m/s)
Visibility: 6 or more miles (10+ km)
Ceiling: 3000 feet AGL
Clouds: broken clouds at 3000 feet AGL
Weather: no significant weather observed at this time

METAR text: DAOO 170630Z 32003KT 9999 BKN030 21/18 Q1018
Conditions at: DAOO (ORAN/ES SENIA , DZ) observed 0630 UTC 17 June 2019
Temperature: 21.0°C (70°F)
Dewpoint: 18.0°C (64°F) [RH = 83%]
Pressure (altimeter): 30.06 inches Hg (1018.0 mb)
Winds: from the NW (320 degrees) at 3 MPH (3 knots; 1.5 m/s)
Visibility: 6 or more miles (10+ km)
Ceiling: 3000 feet AGL
Clouds: broken clouds at 3000 feet AGL
Weather: no significant weather observed at this time

METAR text: DAOO 170600Z 32004KT 9999 BKN026 20/18 Q1017
Conditions at: DAOO (ORAN/ES SENIA , DZ) observed 0600 UTC 17 June 2019
Temperature: 20.0°C (68°F)
Dewpoint: 18.0°C (64°F) [RH = 88%]
Pressure (altimeter): 30.03 inches Hg (1017.0 mb)
Winds: from the NW (320 degrees) at 5 MPH (4 knots; 2.1 m/s)
Visibility: 6 or more miles (10+ km)
Ceiling: 2600 feet AGL
Clouds: broken clouds at 2600 feet AGL
Weather: no significant weather observed at this time

METAR text: DAOO 170530Z 32003KT 9999 FEW013 BKN026 20/17 Q1017
Conditions at: DAOO (ORAN/ES SENIA , DZ) observed 0530 UTC 17 June 2019
Temperature: 20.0°C (68°F)
Dewpoint: 17.0°C (63°F) [RH = 83%]
Pressure (altimeter): 30.03 inches Hg (1017.0 mb)
Winds: from the NW (320 degrees) at 3 MPH (3 knots; 1.5 m/s)
Visibility: 6 or more miles (10+ km)
Ceiling: 2600 feet AGL
Clouds: few clouds at 1300 feet AGL
broken clouds at 2600 feet AGL
Weather: no significant weather observed at this time

METAR text: DAOO 170500Z 32006KT 9999 FEW013 BKN026 20/17 Q1017
Conditions at: DAOO (ORAN/ES SENIA , DZ) observed 0500 UTC 17 June 2019
Temperature: 20.0°C (68°F)
Dewpoint: 17.0°C (63°F) [RH = 83%]
Pressure (altimeter): 30.03 inches Hg (1017.0 mb)
Winds: from the NW (320 degrees) at 7 MPH (6 knots; 3.1 m/s)
Visibility: 6 or more miles (10+ km)
Ceiling: 2600 feet AGL
Clouds: few clouds at 1300 feet AGL
broken clouds at 2600 feet AGL
Weather: no significant weather observed at this time

METAR text: DAOO 170430Z 33005KT 9999 FEW013 BKN026 20/17 Q1017
Conditions at: DAOO (ORAN/ES SENIA , DZ) observed 0430 UTC 17 June 2019
Temperature: 20.0°C (68°F)
Dewpoint: 17.0°C (63°F) [RH = 83%]
Pressure (altimeter): 30.03 inches Hg (1017.0 mb)
Winds: from the NNW (330 degrees) at 6 MPH (5 knots; 2.6 m/s)
Visibility: 6 or more miles (10+ km)
Ceiling: 2600 feet AGL
Clouds: few clouds at 1300 feet AGL
broken clouds at 2600 feet AGL
Weather: no significant weather observed at this time

METAR text: DAOO 170400Z 31005KT 9999 FEW013 BKN026 20/17 Q1017
Conditions at: DAOO (ORAN/ES SENIA , DZ) observed 0400 UTC 17 June 2019
Temperature: 20.0°C (68°F)
Dewpoint: 17.0°C (63°F) [RH = 83%]
Pressure (altimeter): 30.03 inches Hg (1017.0 mb)
Winds: from the NW (310 degrees) at 6 MPH (5 knots; 2.6 m/s)
Visibility: 6 or more miles (10+ km)
Ceiling: 2600 feet AGL
Clouds: few clouds at 1300 feet AGL
broken clouds at 2600 feet AGL
Weather: no significant weather observed at this time

METAR text: DAOO 170330Z 31006KT 9999 FEW013 SCT026 20/18 Q1017
Conditions at: DAOO (ORAN/ES SENIA , DZ) observed 0330 UTC 17 June 2019
Temperature: 20.0°C (68°F)
Dewpoint: 18.0°C (64°F) [RH = 88%]
Pressure (altimeter): 30.03 inches Hg (1017.0 mb)
Winds: from the NW (310 degrees) at 7 MPH (6 knots; 3.1 m/s)
Visibility: 6 or more miles (10+ km)
Ceiling: at least 12,000 feet AGL
Clouds: few clouds at 1300 feet AGL
scattered clouds at 2600 feet AGL
Weather: no significant weather observed at this time

METAR text: DAOO 170300Z 32007KT 9999 FEW013 SCT026 20/18 Q1017
Conditions at: DAOO (ORAN/ES SENIA , DZ) observed 0300 UTC 17 June 2019
Temperature: 20.0°C (68°F)
Dewpoint: 18.0°C (64°F) [RH = 88%]
Pressure (altimeter): 30.03 inches Hg (1017.0 mb)
Winds: from the NW (320 degrees) at 8 MPH (7 knots; 3.6 m/s)
Visibility: 6 or more miles (10+ km)
Ceiling: at least 12,000 feet AGL
Clouds: few clouds at 1300 feet AGL
scattered clouds at 2600 feet AGL
Weather: no significant weather observed at this time

METAR text: DAOO 170230Z 33008KT 9999 SCT013 SCT026 20/17 Q1017
Conditions at: DAOO (ORAN/ES SENIA , DZ) observed 0230 UTC 17 June 2019
Temperature: 20.0°C (68°F)
Dewpoint: 17.0°C (63°F) [RH = 83%]
Pressure (altimeter): 30.03 inches Hg (1017.0 mb)
Winds: from the NNW (330 degrees) at 9 MPH (8 knots; 4.1 m/s)
Visibility: 6 or more miles (10+ km)
Ceiling: at least 12,000 feet AGL
Clouds: scattered clouds at 1300 feet AGL
scattered clouds at 2600 feet AGL
Weather: no significant weather observed at this time

METAR text: DAOO 170200Z 32008KT 9999 SCT013 SCT026 20/17 Q1017
Conditions at: DAOO (ORAN/ES SENIA , DZ) observed 0200 UTC 17 June 2019
Temperature: 20.0°C (68°F)
Dewpoint: 17.0°C (63°F) [RH = 83%]
Pressure (altimeter): 30.03 inches Hg (1017.0 mb)
Winds: from the NW (320 degrees) at 9 MPH (8 knots; 4.1 m/s)
Visibility: 6 or more miles (10+ km)
Ceiling: at least 12,000 feet AGL
Clouds: scattered clouds at 1300 feet AGL
scattered clouds at 2600 feet AGL
Weather: no significant weather observed at this time

METAR text: DAOO 170130Z 32007KT 9999 SCT013 SCT026 20/17 Q1017
Conditions at: DAOO (ORAN/ES SENIA , DZ) observed 0130 UTC 17 June 2019
Temperature: 20.0°C (68°F)
Dewpoint: 17.0°C (63°F) [RH = 83%]
Pressure (altimeter): 30.03 inches Hg (1017.0 mb)
Winds: from the NW (320 degrees) at 8 MPH (7 knots; 3.6 m/s)
Visibility: 6 or more miles (10+ km)
Ceiling: at least 12,000 feet AGL
Clouds: scattered clouds at 1300 feet AGL
scattered clouds at 2600 feet AGL
Weather: no significant weather observed at this time

METAR text: DAOO 170100Z 32007KT 9999 SCT013 SCT026 21/18 Q1017
Conditions at: DAOO (ORAN/ES SENIA , DZ) observed 0100 UTC 17 June 2019
Temperature: 21.0°C (70°F)
Dewpoint: 18.0°C (64°F) [RH = 83%]
Pressure (altimeter): 30.03 inches Hg (1017.0 mb)
Winds: from the NW (320 degrees) at 8 MPH (7 knots; 3.6 m/s)
Visibility: 6 or more miles (10+ km)
Ceiling: at least 12,000 feet AGL
Clouds: scattered clouds at 1300 feet AGL
scattered clouds at 2600 feet AGL
Weather: no significant weather observed at this time

METAR text: DAOO 170030Z 32007KT 9999 SCT013 SCT023 21/18 Q1018
Conditions at: DAOO (ORAN/ES SENIA , DZ) observed 0030 UTC 17 June 2019
Temperature: 21.0°C (70°F)
Dewpoint: 18.0°C (64°F) [RH = 83%]
Pressure (altimeter): 30.06 inches Hg (1018.0 mb)
Winds: from the NW (320 degrees) at 8 MPH (7 knots; 3.6 m/s)
Visibility: 6 or more miles (10+ km)
Ceiling: at least 12,000 feet AGL
Clouds: scattered clouds at 1300 feet AGL
scattered clouds at 2300 feet AGL
Weather: no significant weather observed at this time

METAR text: DAOO 170000Z 32007KT 9999 SCT013 SCT023 21/18 Q1017
Conditions at: DAOO (ORAN/ES SENIA , DZ) observed 0000 UTC 17 June 2019
Temperature: 21.0°C (70°F)
Dewpoint: 18.0°C (64°F) [RH = 83%]
Pressure (altimeter): 30.03 inches Hg (1017.0 mb)
Winds: from the NW (320 degrees) at 8 MPH (7 knots; 3.6 m/s)
Visibility: 6 or more miles (10+ km)
Ceiling: at least 12,000 feet AGL
Clouds: scattered clouds at 1300 feet AGL
scattered clouds at 2300 feet AGL
Weather: no significant weather observed at this time

METAR text: DAOO 162330Z 31006KT 290V360 9999 BKN013 21/18 Q1018
Conditions at: DAOO (ORAN/ES SENIA , DZ) observed 2330 UTC 16 June 2019
Temperature: 21.0°C (70°F)
Dewpoint: 18.0°C (64°F) [RH = 83%]
Pressure (altimeter): 30.06 inches Hg (1018.0 mb)
Winds: from the NW (310 degrees) at 7 MPH (6 knots; 3.1 m/s)
Visibility: 6 or more miles (10+ km)
Ceiling: 1300 feet AGL
Clouds: broken clouds at 1300 feet AGL
Weather: no significant weather observed at this time

METAR text: DAOO 162300Z 34007KT 9999 BKN013 21/18 Q1018
Conditions at: DAOO (ORAN/ES SENIA , DZ) observed 2300 UTC 16 June 2019
Temperature: 21.0°C (70°F)
Dewpoint: 18.0°C (64°F) [RH = 83%]
Pressure (altimeter): 30.06 inches Hg (1018.0 mb)
Winds: from the NNW (340 degrees) at 8 MPH (7 knots; 3.6 m/s)
Visibility: 6 or more miles (10+ km)
Ceiling: 1300 feet AGL
Clouds: broken clouds at 1300 feet AGL
Weather: no significant weather observed at this time

METAR text: DAOO 162230Z 34007KT 9999 BKN013 21/18 Q1018
Conditions at: DAOO (ORAN/ES SENIA , DZ) observed 2230 UTC 16 June 2019
Temperature: 21.0°C (70°F)
Dewpoint: 18.0°C (64°F) [RH = 83%]
Pressure (altimeter): 30.06 inches Hg (1018.0 mb)
Winds: from the NNW (340 degrees) at 8 MPH (7 knots; 3.6 m/s)
Visibility: 6 or more miles (10+ km)
Ceiling: 1300 feet AGL
Clouds: broken clouds at 1300 feet AGL
Weather: no significant weather observed at this time

METAR text: DAOO 162200Z 34007KT 310V020 9999 BKN013 21/18 Q1017
Conditions at: DAOO (ORAN/ES SENIA , DZ) observed 2200 UTC 16 June 2019
Temperature: 21.0°C (70°F)
Dewpoint: 18.0°C (64°F) [RH = 83%]
Pressure (altimeter): 30.03 inches Hg (1017.0 mb)
Winds: from the NNW (340 degrees) at 8 MPH (7 knots; 3.6 m/s)
Visibility: 6 or more miles (10+ km)
Ceiling: 1300 feet AGL
Clouds: broken clouds at 1300 feet AGL
Weather: no significant weather observed at this time

METAR text: DAOO 162130Z 33007KT 300V360 9999 BKN013 21/18 Q1018
Conditions at: DAOO (ORAN/ES SENIA , DZ) observed 2130 UTC 16 June 2019
Temperature: 21.0°C (70°F)
Dewpoint: 18.0°C (64°F) [RH = 83%]
Pressure (altimeter): 30.06 inches Hg (1018.0 mb)
Winds: from the NNW (330 degrees) at 8 MPH (7 knots; 3.6 m/s)
Visibility: 6 or more miles (10+ km)
Ceiling: 1300 feet AGL
Clouds: broken clouds at 1300 feet AGL
Weather: no significant weather observed at this time

METAR text: DAOO 162100Z 34007KT 9999 BKN013 21/17 Q1017
Conditions at: DAOO (ORAN/ES SENIA , DZ) observed 2100 UTC 16 June 2019
Temperature: 21.0°C (70°F)
Dewpoint: 17.0°C (63°F) [RH = 78%]
Pressure (altimeter): 30.03 inches Hg (1017.0 mb)
Winds: from the NNW (340 degrees) at 8 MPH (7 knots; 3.6 m/s)
Visibility: 6 or more miles (10+ km)
Ceiling: 1300 feet AGL
Clouds: broken clouds at 1300 feet AGL
Weather: no significant weather observed at this time

METAR text: DAOO 162030Z 33007KT 310V010 9999 BKN013 SCT026 21/18 Q1017
Conditions at: DAOO (ORAN/ES SENIA , DZ) observed 2030 UTC 16 June 2019
Temperature: 21.0°C (70°F)
Dewpoint: 18.0°C (64°F) [RH = 83%]
Pressure (altimeter): 30.03 inches Hg (1017.0 mb)
Winds: from the NNW (330 degrees) at 8 MPH (7 knots; 3.6 m/s)
Visibility: 6 or more miles (10+ km)
Ceiling: 1300 feet AGL
Clouds: broken clouds at 1300 feet AGL
scattered clouds at 2600 feet AGL
Weather: no significant weather observed at this time

METAR text: DAOO 162000Z 33009KT 300V360 9999 BKN013 SCT026 21/18 Q1017
Conditions at: DAOO (ORAN/ES SENIA , DZ) observed 2000 UTC 16 June 2019
Temperature: 21.0°C (70°F)
Dewpoint: 18.0°C (64°F) [RH = 83%]
Pressure (altimeter): 30.03 inches Hg (1017.0 mb)
Winds: from the NNW (330 degrees) at 10 MPH (9 knots; 4.6 m/s)
Visibility: 6 or more miles (10+ km)
Ceiling: 1300 feet AGL
Clouds: broken clouds at 1300 feet AGL
scattered clouds at 2600 feet AGL
Weather: no significant weather observed at this time

METAR text: DAOO 161930Z 33010KT 300V020 9999 BKN013 SCT026 21/18 Q1017
Conditions at: DAOO (ORAN/ES SENIA , DZ) observed 1930 UTC 16 June 2019
Temperature: 21.0°C (70°F)
Dewpoint: 18.0°C (64°F) [RH = 83%]
Pressure (altimeter): 30.03 inches Hg (1017.0 mb)
Winds: from the NNW (330 degrees) at 12 MPH (10 knots; 5.1 m/s)
Visibility: 6 or more miles (10+ km)
Ceiling: 1300 feet AGL
Clouds: broken clouds at 1300 feet AGL
scattered clouds at 2600 feet AGL
Weather: no significant weather observed at this time

METAR text: DAOO 161900Z 33010KT 9999 SCT013 SCT026 22/18 Q1016
Conditions at: DAOO (ORAN/ES SENIA , DZ) observed 1900 UTC 16 June 2019
Temperature: 22.0°C (72°F)
Dewpoint: 18.0°C (64°F) [RH = 78%]
Pressure (altimeter): 30.00 inches Hg (1016.0 mb)
Winds: from the NNW (330 degrees) at 12 MPH (10 knots; 5.1 m/s)
Visibility: 6 or more miles (10+ km)
Ceiling: at least 12,000 feet AGL
Clouds: scattered clouds at 1300 feet AGL
scattered clouds at 2600 feet AGL
Weather: no significant weather observed at this time

METAR text: DAOO 161830Z 34011KT 300V010 9999 SCT013 SCT026 22/18 Q1016
Conditions at: DAOO (ORAN/ES SENIA , DZ) observed 1830 UTC 16 June 2019
Temperature: 22.0°C (72°F)
Dewpoint: 18.0°C (64°F) [RH = 78%]
Pressure (altimeter): 30.00 inches Hg (1016.0 mb)
Winds: from the NNW (340 degrees) at 13 MPH (11 knots; 5.7 m/s)
Visibility: 6 or more miles (10+ km)
Ceiling: at least 12,000 feet AGL
Clouds: scattered clouds at 1300 feet AGL
scattered clouds at 2600 feet AGL
Weather: no significant weather observed at this time

METAR text: DAOO 161800Z 34012KT 9999 SCT013 SCT026 22/18 Q1016
Conditions at: DAOO (ORAN/ES SENIA , DZ) observed 1800 UTC 16 June 2019
Temperature: 22.0°C (72°F)
Dewpoint: 18.0°C (64°F) [RH = 78%]
Pressure (altimeter): 30.00 inches Hg (1016.0 mb)
Winds: from the NNW (340 degrees) at 14 MPH (12 knots; 6.2 m/s)
Visibility: 6 or more miles (10+ km)
Ceiling: at least 12,000 feet AGL
Clouds: scattered clouds at 1300 feet AGL
scattered clouds at 2600 feet AGL
Weather: no significant weather observed at this time

METAR text: DAOO 161730Z 34015KT 9999 SCT026 SCT233 22/18 Q1016
Conditions at: DAOO (ORAN/ES SENIA , DZ) observed 1730 UTC 16 June 2019
Temperature: 22.0°C (72°F)
Dewpoint: 18.0°C (64°F) [RH = 78%]
Pressure (altimeter): 30.00 inches Hg (1016.0 mb)
Winds: from the NNW (340 degrees) at 17 MPH (15 knots; 7.7 m/s)
Visibility: 6 or more miles (10+ km)
Ceiling: at least 12,000 feet AGL
Clouds: scattered clouds at 2600 feet AGL
scattered clouds at 23300 feet AGL
Weather: no significant weather observed at this time

METAR text: DAOO 161700Z 34017KT 9999 SCT026 SCT233 22/18 Q1015
Conditions at: DAOO (ORAN/ES SENIA , DZ) observed 1700 UTC 16 June 2019
Temperature: 22.0°C (72°F)
Dewpoint: 18.0°C (64°F) [RH = 78%]
Pressure (altimeter): 29.97 inches Hg (1015.0 mb)
Winds: from the NNW (340 degrees) at 20 MPH (17 knots; 8.7 m/s)
Visibility: 6 or more miles (10+ km)
Ceiling: at least 12,000 feet AGL
Clouds: scattered clouds at 2600 feet AGL
scattered clouds at 23300 feet AGL
Weather: no significant weather observed at this time

METAR text: DAOO 161630Z 34018KT 9999 SCT026 SCT233 23/18 Q1015
Conditions at: DAOO (ORAN/ES SENIA , DZ) observed 1630 UTC 16 June 2019
Temperature: 23.0°C (73°F)
Dewpoint: 18.0°C (64°F) [RH = 73%]
Pressure (altimeter): 29.97 inches Hg (1015.0 mb)
Winds: from the NNW (340 degrees) at 21 MPH (18 knots; 9.3 m/s)
Visibility: 6 or more miles (10+ km)
Ceiling: at least 12,000 feet AGL
Clouds: scattered clouds at 2600 feet AGL
scattered clouds at 23300 feet AGL
Weather: no significant weather observed at this time

METAR text: DAOO 161600Z 34016KT 9999 SCT026 SCT233 23/18 Q1015
Conditions at: DAOO (ORAN/ES SENIA , DZ) observed 1600 UTC 16 June 2019
Temperature: 23.0°C (73°F)
Dewpoint: 18.0°C (64°F) [RH = 73%]
Pressure (altimeter): 29.97 inches Hg (1015.0 mb)
Winds: from the NNW (340 degrees) at 18 MPH (16 knots; 8.2 m/s)
Visibility: 6 or more miles (10+ km)
Ceiling: at least 12,000 feet AGL
Clouds: scattered clouds at 2600 feet AGL
scattered clouds at 23300 feet AGL
Weather: no significant weather observed at this time

METAR text: DAOO 161530Z 33020KT 9999 SCT026 SCT233 23/18 Q1015
Conditions at: DAOO (ORAN/ES SENIA , DZ) observed 1530 UTC 16 June 2019
Temperature: 23.0°C (73°F)
Dewpoint: 18.0°C (64°F) [RH = 73%]
Pressure (altimeter): 29.97 inches Hg (1015.0 mb)
Winds: from the NNW (330 degrees) at 23 MPH (20 knots; 10.3 m/s)
Visibility: 6 or more miles (10+ km)
Ceiling: at least 12,000 feet AGL
Clouds: scattered clouds at 2600 feet AGL
scattered clouds at 23300 feet AGL
Weather: no significant weather observed at this time

METAR text: DAOO 161500Z 34016KT 9999 FEW026 BKN233 24/18 Q1015
Conditions at: DAOO (ORAN/ES SENIA , DZ) observed 1500 UTC 16 June 2019
Temperature: 24.0°C (75°F)
Dewpoint: 18.0°C (64°F) [RH = 69%]
Pressure (altimeter): 29.97 inches Hg (1015.0 mb)
Winds: from the NNW (340 degrees) at 18 MPH (16 knots; 8.2 m/s)
Visibility: 6 or more miles (10+ km)
Ceiling: 23300 feet AGL
Clouds: few clouds at 2600 feet AGL
broken clouds at 23300 feet AGL
Weather: no significant weather observed at this time

METAR text: DAOO 161430Z 34017KT 9999 FEW026 BKN233 25/18 Q1015
Conditions at: DAOO (ORAN/ES SENIA , DZ) observed 1430 UTC 16 June 2019
Temperature: 25.0°C (77°F)
Dewpoint: 18.0°C (64°F) [RH = 65%]
Pressure (altimeter): 29.97 inches Hg (1015.0 mb)
Winds: from the NNW (340 degrees) at 20 MPH (17 knots; 8.7 m/s)
Visibility: 6 or more miles (10+ km)
Ceiling: 23300 feet AGL
Clouds: few clouds at 2600 feet AGL
broken clouds at 23300 feet AGL
Weather: no significant weather observed at this time

METAR text: DAOO 161400Z 34015KT 9999 FEW026 BKN233 24/18 Q1015
Conditions at: DAOO (ORAN/ES SENIA , DZ) observed 1400 UTC 16 June 2019
Temperature: 24.0°C (75°F)
Dewpoint: 18.0°C (64°F) [RH = 69%]
Pressure (altimeter): 29.97 inches Hg (1015.0 mb)
Winds: from the NNW (340 degrees) at 17 MPH (15 knots; 7.7 m/s)
Visibility: 6 or more miles (10+ km)
Ceiling: 23300 feet AGL
Clouds: few clouds at 2600 feet AGL
broken clouds at 23300 feet AGL
Weather: no significant weather observed at this time

METAR text: DAOO 161330Z 34017KT 9999 FEW026 BKN233 24/18 Q1015
Conditions at: DAOO (ORAN/ES SENIA , DZ) observed 1330 UTC 16 June 2019
Temperature: 24.0°C (75°F)
Dewpoint: 18.0°C (64°F) [RH = 69%]
Pressure (altimeter): 29.97 inches Hg (1015.0 mb)
Winds: from the NNW (340 degrees) at 20 MPH (17 knots; 8.7 m/s)
Visibility: 6 or more miles (10+ km)
Ceiling: 23300 feet AGL
Clouds: few clouds at 2600 feet AGL
broken clouds at 23300 feet AGL
Weather: no significant weather observed at this time

METAR text: DAOO 161300Z 34015KT 9999 FEW026 BKN233 24/18 Q1016
Conditions at: DAOO (ORAN/ES SENIA , DZ) observed 1300 UTC 16 June 2019
Temperature: 24.0°C (75°F)
Dewpoint: 18.0°C (64°F) [RH = 69%]
Pressure (altimeter): 30.00 inches Hg (1016.0 mb)
Winds: from the NNW (340 degrees) at 17 MPH (15 knots; 7.7 m/s)
Visibility: 6 or more miles (10+ km)
Ceiling: 23300 feet AGL
Clouds: few clouds at 2600 feet AGL
broken clouds at 23300 feet AGL
Weather: no significant weather observed at this time

METAR text: DAOO 161230Z 33017KT 9999 FEW026 BKN233 24/18 Q1016
Conditions at: DAOO (ORAN/ES SENIA , DZ) observed 1230 UTC 16 June 2019
Temperature: 24.0°C (75°F)
Dewpoint: 18.0°C (64°F) [RH = 69%]
Pressure (altimeter): 30.00 inches Hg (1016.0 mb)
Winds: from the NNW (330 degrees) at 20 MPH (17 knots; 8.7 m/s)
Visibility: 6 or more miles (10+ km)
Ceiling: 23300 feet AGL
Clouds: few clouds at 2600 feet AGL
broken clouds at 23300 feet AGL
Weather: no significant weather observed at this time

METAR text: DAOO 161200Z 34014KT 9999 FEW026 BKN233 24/18 Q1016
Conditions at: DAOO (ORAN/ES SENIA , DZ) observed 1200 UTC 16 June 2019
Temperature: 24.0°C (75°F)
Dewpoint: 18.0°C (64°F) [RH = 69%]
Pressure (altimeter): 30.00 inches Hg (1016.0 mb)
Winds: from the NNW (340 degrees) at 16 MPH (14 knots; 7.2 m/s)
Visibility: 6 or more miles (10+ km)
Ceiling: 23300 feet AGL
Clouds: few clouds at 2600 feet AGL
broken clouds at 23300 feet AGL
Weather: no significant weather observed at this time

METAR text: DAOO 161130Z 32014KT 9999 FEW026 BKN233 24/17 Q1016
Conditions at: DAOO (ORAN/ES SENIA , DZ) observed 1130 UTC 16 June 2019
Temperature: 24.0°C (75°F)
Dewpoint: 17.0°C (63°F) [RH = 65%]
Pressure (altimeter): 30.00 inches Hg (1016.0 mb)
Winds: from the NW (320 degrees) at 16 MPH (14 knots; 7.2 m/s)
Visibility: 6 or more miles (10+ km)
Ceiling: 23300 feet AGL
Clouds: few clouds at 2600 feet AGL
broken clouds at 23300 feet AGL
Weather: no significant weather observed at this time

METAR text: DAOO 161100Z 34014KT 9999 FEW026 BKN233 24/17 Q1016
Conditions at: DAOO (ORAN/ES SENIA , DZ) observed 1100 UTC 16 June 2019
Temperature: 24.0°C (75°F)
Dewpoint: 17.0°C (63°F) [RH = 65%]
Pressure (altimeter): 30.00 inches Hg (1016.0 mb)
Winds: from the NNW (340 degrees) at 16 MPH (14 knots; 7.2 m/s)
Visibility: 6 or more miles (10+ km)
Ceiling: 23300 feet AGL
Clouds: few clouds at 2600 feet AGL
broken clouds at 23300 feet AGL
Weather: no significant weather observed at this time

METAR text: DAOO 161030Z 33012KT 9999 FEW026 BKN233 24/17 Q1017
Conditions at: DAOO (ORAN/ES SENIA , DZ) observed 1030 UTC 16 June 2019
Temperature: 24.0°C (75°F)
Dewpoint: 17.0°C (63°F) [RH = 65%]
Pressure (altimeter): 30.03 inches Hg (1017.0 mb)
Winds: from the NNW (330 degrees) at 14 MPH (12 knots; 6.2 m/s)
Visibility: 6 or more miles (10+ km)
Ceiling: 23300 feet AGL
Clouds: few clouds at 2600 feet AGL
broken clouds at 23300 feet AGL
Weather: no significant weather observed at this time

METAR text: DAOO 161000Z 33011KT 9999 FEW026 SCT233 24/16 Q1017
Conditions at: DAOO (ORAN/ES SENIA , DZ) observed 1000 UTC 16 June 2019
Temperature: 24.0°C (75°F)
Dewpoint: 16.0°C (61°F) [RH = 61%]
Pressure (altimeter): 30.03 inches Hg (1017.0 mb)
Winds: from the NNW (330 degrees) at 13 MPH (11 knots; 5.7 m/s)
Visibility: 6 or more miles (10+ km)
Ceiling: at least 12,000 feet AGL
Clouds: few clouds at 2600 feet AGL
scattered clouds at 23300 feet AGL
Weather: no significant weather observed at this time

METAR text: DAOO 160930Z 31008KT 9999 FEW026 24/16 Q1017
Conditions at: DAOO (ORAN/ES SENIA , DZ) observed 0930 UTC 16 June 2019
Temperature: 24.0°C (75°F)
Dewpoint: 16.0°C (61°F) [RH = 61%]
Pressure (altimeter): 30.03 inches Hg (1017.0 mb)
Winds: from the NW (310 degrees) at 9 MPH (8 knots; 4.1 m/s)
Visibility: 6 or more miles (10+ km)
Ceiling: at least 12,000 feet AGL
Clouds: few clouds at 2600 feet AGL
Weather: no significant weather observed at this time

METAR text: DAOO 160900Z 34006KT 9999 FEW026 24/16 Q1017
Conditions at: DAOO (ORAN/ES SENIA , DZ) observed 0900 UTC 16 June 2019
Temperature: 24.0°C (75°F)
Dewpoint: 16.0°C (61°F) [RH = 61%]
Pressure (altimeter): 30.03 inches Hg (1017.0 mb)
Winds: from the NNW (340 degrees) at 7 MPH (6 knots; 3.1 m/s)
Visibility: 6 or more miles (10+ km)
Ceiling: at least 12,000 feet AGL
Clouds: few clouds at 2600 feet AGL
Weather: no significant weather observed at this time

METAR text: DAOO 160830Z 02007KT 9999 FEW026 23/14 Q1017
Conditions at: DAOO (ORAN/ES SENIA , DZ) observed 0830 UTC 16 June 2019
Temperature: 23.0°C (73°F)
Dewpoint: 14.0°C (57°F) [RH = 57%]
Pressure (altimeter): 30.03 inches Hg (1017.0 mb)
Winds: from the NNE (20 degrees) at 8 MPH (7 knots; 3.6 m/s)
Visibility: 6 or more miles (10+ km)
Ceiling: at least 12,000 feet AGL
Clouds: few clouds at 2600 feet AGL
Weather: no significant weather observed at this time

METAR text: DAOO 160800Z 05006KT 9999 FEW026 22/15 Q1017
Conditions at: DAOO (ORAN/ES SENIA , DZ) observed 0800 UTC 16 June 2019
Temperature: 22.0°C (72°F)
Dewpoint: 15.0°C (59°F) [RH = 65%]
Pressure (altimeter): 30.03 inches Hg (1017.0 mb)
Winds: from the NE (50 degrees) at 7 MPH (6 knots; 3.1 m/s)
Visibility: 6 or more miles (10+ km)
Ceiling: at least 12,000 feet AGL
Clouds: few clouds at 2600 feet AGL
Weather: no significant weather observed at this time

METAR text: DAOO 160730Z 04008KT 9999 FEW026 21/15 Q1017
Conditions at: DAOO (ORAN/ES SENIA , DZ) observed 0730 UTC 16 June 2019
Temperature: 21.0°C (70°F)
Dewpoint: 15.0°C (59°F) [RH = 69%]
Pressure (altimeter): 30.03 inches Hg (1017.0 mb)
Winds: from the NE (40 degrees) at 9 MPH (8 knots; 4.1 m/s)
Visibility: 6 or more miles (10+ km)
Ceiling: at least 12,000 feet AGL
Clouds: few clouds at 2600 feet AGL
Weather: no significant weather observed at this time

METAR text: DAOO 160700Z 07008KT 9999 FEW026 20/15 Q1017
Conditions at: DAOO (ORAN/ES SENIA , DZ) observed 0700 UTC 16 June 2019
Temperature: 20.0°C (68°F)
Dewpoint: 15.0°C (59°F) [RH = 73%]
Pressure (altimeter): 30.03 inches Hg (1017.0 mb)
Winds: from the ENE (70 degrees) at 9 MPH (8 knots; 4.1 m/s)
Visibility: 6 or more miles (10+ km)
Ceiling: at least 12,000 feet AGL
Clouds: few clouds at 2600 feet AGL
Weather: no significant weather observed at this time

METAR text: DAOO 160630Z 04005KT CAVOK 19/14 Q1017
Conditions at: DAOO (ORAN/ES SENIA , DZ) observed 0630 UTC 16 June 2019
Temperature: 19.0°C (66°F)
Dewpoint: 14.0°C (57°F) [RH = 73%]
Pressure (altimeter): 30.03 inches Hg (1017.0 mb)
Winds: from the NE (40 degrees) at 6 MPH (5 knots; 2.6 m/s)
Visibility: 6 or more miles (10+ km)
Ceiling: ceiling and visibility are OK
Clouds: unknown
Weather: no significant weather observed at this time

METAR text: DAOO 160600Z 04005KT CAVOK 18/12 Q1016
Conditions at: DAOO (ORAN/ES SENIA , DZ) observed 0600 UTC 16 June 2019
Temperature: 18.0°C (64°F)
Dewpoint: 12.0°C (54°F) [RH = 68%]
Pressure (altimeter): 30.00 inches Hg (1016.0 mb)
Winds: from the NE (40 degrees) at 6 MPH (5 knots; 2.6 m/s)
Visibility: 6 or more miles (10+ km)
Ceiling: ceiling and visibility are OK
Clouds: unknown
Weather: no significant weather observed at this time

METAR text: DAOO 160530Z 04003KT 9999 FEW023 17/15 Q1016
Conditions at: DAOO (ORAN/ES SENIA , DZ) observed 0530 UTC 16 June 2019
Temperature: 17.0°C (63°F)
Dewpoint: 15.0°C (59°F) [RH = 88%]
Pressure (altimeter): 30.00 inches Hg (1016.0 mb)
Winds: from the NE (40 degrees) at 3 MPH (3 knots; 1.5 m/s)
Visibility: 6 or more miles (10+ km)
Ceiling: at least 12,000 feet AGL
Clouds: few clouds at 2300 feet AGL
Weather: no significant weather observed at this time

METAR text: DAOO 160500Z 04003KT 9999 FEW023 17/15 Q1016
Conditions at: DAOO (ORAN/ES SENIA , DZ) observed 0500 UTC 16 June 2019
Temperature: 17.0°C (63°F)
Dewpoint: 15.0°C (59°F) [RH = 88%]
Pressure (altimeter): 30.00 inches Hg (1016.0 mb)
Winds: from the NE (40 degrees) at 3 MPH (3 knots; 1.5 m/s)
Visibility: 6 or more miles (10+ km)
Ceiling: at least 12,000 feet AGL
Clouds: few clouds at 2300 feet AGL
Weather: no significant weather observed at this time

METAR text: DAOO 160430Z 04003KT 9999 FEW023 17/15 Q1016
Conditions at: DAOO (ORAN/ES SENIA , DZ) observed 0430 UTC 16 June 2019
Temperature: 17.0°C (63°F)
Dewpoint: 15.0°C (59°F) [RH = 88%]
Pressure (altimeter): 30.00 inches Hg (1016.0 mb)
Winds: from the NE (40 degrees) at 3 MPH (3 knots; 1.5 m/s)
Visibility: 6 or more miles (10+ km)
Ceiling: at least 12,000 feet AGL
Clouds: few clouds at 2300 feet AGL
Weather: no significant weather observed at this time

METAR text: DAOO 160400Z 04003KT 9999 FEW023 17/15 Q1016
Conditions at: DAOO (ORAN/ES SENIA , DZ) observed 0400 UTC 16 June 2019
Temperature: 17.0°C (63°F)
Dewpoint: 15.0°C (59°F) [RH = 88%]
Pressure (altimeter): 30.00 inches Hg (1016.0 mb)
Winds: from the NE (40 degrees) at 3 MPH (3 knots; 1.5 m/s)
Visibility: 6 or more miles (10+ km)
Ceiling: at least 12,000 feet AGL
Clouds: few clouds at 2300 feet AGL
Weather: no significant weather observed at this time

METAR text: DAOO 160330Z 04003KT CAVOK 17/15 Q1016
Conditions at: DAOO (ORAN/ES SENIA , DZ) observed 0330 UTC 16 June 2019
Temperature: 17.0°C (63°F)
Dewpoint: 15.0°C (59°F) [RH = 88%]
Pressure (altimeter): 30.00 inches Hg (1016.0 mb)
Winds: from the NE (40 degrees) at 3 MPH (3 knots; 1.5 m/s)
Visibility: 6 or more miles (10+ km)
Ceiling: ceiling and visibility are OK
Clouds: unknown
Weather: no significant weather observed at this time

METAR text: DAOO 160300Z 04003KT CAVOK 17/15 Q1016
Conditions at: DAOO (ORAN/ES SENIA , DZ) observed 0300 UTC 16 June 2019
Temperature: 17.0°C (63°F)
Dewpoint: 15.0°C (59°F) [RH = 88%]
Pressure (altimeter): 30.00 inches Hg (1016.0 mb)
Winds: from the NE (40 degrees) at 3 MPH (3 knots; 1.5 m/s)
Visibility: 6 or more miles (10+ km)
Ceiling: ceiling and visibility are OK
Clouds: unknown
Weather: no significant weather observed at this time

METAR text: DAOO 160230Z 36002KT CAVOK 18/15 Q1017
Conditions at: DAOO (ORAN/ES SENIA , DZ) observed 0230 UTC 16 June 2019
Temperature: 18.0°C (64°F)
Dewpoint: 15.0°C (59°F) [RH = 83%]
Pressure (altimeter): 30.03 inches Hg (1017.0 mb)
Winds: from the N (360 degrees) at 2 MPH (2 knots; 1.0 m/s)
Visibility: 6 or more miles (10+ km)
Ceiling: ceiling and visibility are OK
Clouds: unknown
Weather: no significant weather observed at this time

METAR text: DAOO 160200Z 36002KT CAVOK 18/15 Q1017
Conditions at: DAOO (ORAN/ES SENIA , DZ) observed 0200 UTC 16 June 2019
Temperature: 18.0°C (64°F)
Dewpoint: 15.0°C (59°F) [RH = 83%]
Pressure (altimeter): 30.03 inches Hg (1017.0 mb)
Winds: from the N (360 degrees) at 2 MPH (2 knots; 1.0 m/s)
Visibility: 6 or more miles (10+ km)
Ceiling: ceiling and visibility are OK
Clouds: unknown
Weather: no significant weather observed at this time

METAR text: DAOO 160130Z 36002KT CAVOK 18/15 Q1017
Conditions at: DAOO (ORAN/ES SENIA , DZ) observed 0130 UTC 16 June 2019
Temperature: 18.0°C (64°F)
Dewpoint: 15.0°C (59°F) [RH = 83%]
Pressure (altimeter): 30.03 inches Hg (1017.0 mb)
Winds: from the N (360 degrees) at 2 MPH (2 knots; 1.0 m/s)
Visibility: 6 or more miles (10+ km)
Ceiling: ceiling and visibility are OK
Clouds: unknown
Weather: no significant weather observed at this time

METAR text: DAOO 160100Z 36002KT CAVOK 18/15 Q1017
Conditions at: DAOO (ORAN/ES SENIA , DZ) observed 0100 UTC 16 June 2019
Temperature: 18.0°C (64°F)
Dewpoint: 15.0°C (59°F) [RH = 83%]
Pressure (altimeter): 30.03 inches Hg (1017.0 mb)
Winds: from the N (360 degrees) at 2 MPH (2 knots; 1.0 m/s)
Visibility: 6 or more miles (10+ km)
Ceiling: ceiling and visibility are OK
Clouds: unknown
Weather: no significant weather observed at this time

METAR text: DAOO 160030Z 36002KT CAVOK 18/15 Q1017
Conditions at: DAOO (ORAN/ES SENIA , DZ) observed 0030 UTC 16 June 2019
Temperature: 18.0°C (64°F)
Dewpoint: 15.0°C (59°F) [RH = 83%]
Pressure (altimeter): 30.03 inches Hg (1017.0 mb)
Winds: from the N (360 degrees) at 2 MPH (2 knots; 1.0 m/s)
Visibility: 6 or more miles (10+ km)
Ceiling: ceiling and visibility are OK
Clouds: unknown
Weather: no significant weather observed at this time

METAR text: DAOO 160000Z 36002KT CAVOK 19/11 Q1017
Conditions at: DAOO (ORAN/ES SENIA , DZ) observed 0000 UTC 16 June 2019
Temperature: 19.0°C (66°F)
Dewpoint: 11.0°C (52°F) [RH = 60%]
Pressure (altimeter): 30.03 inches Hg (1017.0 mb)
Winds: from the N (360 degrees) at 2 MPH (2 knots; 1.0 m/s)
Visibility: 6 or more miles (10+ km)
Ceiling: ceiling and visibility are OK
Clouds: unknown
Weather: no significant weather observed at this time

METAR text: DAOO 152330Z 02003KT CAVOK 19/14 Q1018
Conditions at: DAOO (ORAN/ES SENIA , DZ) observed 2330 UTC 15 June 2019
Temperature: 19.0°C (66°F)
Dewpoint: 14.0°C (57°F) [RH = 73%]
Pressure (altimeter): 30.06 inches Hg (1018.0 mb)
Winds: from the NNE (20 degrees) at 3 MPH (3 knots; 1.5 m/s)
Visibility: 6 or more miles (10+ km)
Ceiling: ceiling and visibility are OK
Clouds: unknown
Weather: no significant weather observed at this time

METAR text: DAOO 152300Z 02003KT CAVOK 19/14 Q1018
Conditions at: DAOO (ORAN/ES SENIA , DZ) observed 2300 UTC 15 June 2019
Temperature: 19.0°C (66°F)
Dewpoint: 14.0°C (57°F) [RH = 73%]
Pressure (altimeter): 30.06 inches Hg (1018.0 mb)
Winds: from the NNE (20 degrees) at 3 MPH (3 knots; 1.5 m/s)
Visibility: 6 or more miles (10+ km)
Ceiling: ceiling and visibility are OK
Clouds: unknown
Weather: no significant weather observed at this time

Forecast for: DAOO (ORAN/ES SENIA , DZ)
Text: TAF DAOO 170500Z 1706/1806 VRB02KT 9999 FEW013 SCT026
Forecast period: 0600 to 0900 UTC 17 June 2019
Forecast type: FROM: standard forecast or significant change
Winds: variable direction winds at 2 MPH (2 knots; 1.0 m/s)
Visibility: 6 or more miles 10+ km)
Ceiling: at least 12,000 feet AGL
Clouds: few clouds at 1300 feet AGL
scattered clouds at 2600 feet AGL
Weather: no significant weather forecast for this period
Text: BECMG 1709/1712 34010KT 9999 SCT026
Forecast period: 0900 to 1900 UTC 17 June 2019
Forecast type: BECOMING: Conditions expected to become as follows by 1200 UTC 17 June 2019
Winds: from the NNW (340 degrees) at 12 MPH (10 knots; 5.1 m/s)
Visibility: 6 or more miles 10+ km)
Ceiling: at least 12,000 feet AGL
Clouds: scattered clouds at 2600 feet AGL
Weather: no significant weather forecast for this period
Text: BECMG 1719/1722 VRB02KT CAVOK
Forecast period: 1900 UTC 17 June 2019 to 0600 UTC 18 June 2019
Forecast type: BECOMING: Conditions expected to become as follows by 2200 UTC 17 June 2019
Winds: variable direction winds at 2 MPH (2 knots; 1.0 m/s)
Visibility: 6 or more miles 10+ km)
Ceiling: unknown
Clouds: missing
Weather: NSW  (no significant weather)
Text: TEMPO 1804/1806 4000 BR
Forecast period: 0400 to 0600 UTC 18 June 2019
Forecast type: TEMPORARY: The following changes expected for less than half the time period
Visibility: 2.49 miles (4.01 km)
Ceiling: unknown
Clouds: missing
Weather: BR  (mist)